Time;durP1;ratioP1;P1;durP2;ratioP2;P2;SDS_P1;SDS_P2;PMS_P1;PMS_P2;Temp;Humidity;BMP_temperature;BMP_pressure;BME280_temperature;BME280_humidity;BME280_pressure;Samples;Min_cycle;Max_cycle;Signal;HPM_P1;HPM_P2
2021/11/13 00:00:56;;;;;;;26.40;17.08;;;6.30;99.90;;;;;;5037145;28;20079;-90
2021/11/13 00:03:22;;;;;;;28.65;16.85;;;6.40;99.90;;;;;;5036711;28;20063;-90
2021/11/13 00:05:48;;;;;;;30.27;16.92;;;6.40;99.90;;;;;;5036476;28;20025;-90
2021/11/13 00:08:13;;;;;;;31.85;17.05;;;6.30;99.90;;;;;;5036585;28;20087;-90
2021/11/13 00:10:41;;;;;;;32.20;18.88;;;6.30;99.90;;;;;;5036352;28;20041;-90
2021/11/13 00:13:09;;;;;;;33.83;19.02;;;6.30;99.90;;;;;;5036458;28;20026;-90
2021/11/13 00:15:34;;;;;;;36.22;19.88;;;6.30;99.90;;;;;;5036452;28;20044;-90
2021/11/13 00:18:00;;;;;;;33.10;17.75;;;6.30;99.90;;;;;;5036390;28;20021;-90
2021/11/13 00:20:27;;;;;;;32.80;19.33;;;6.30;99.90;;;;;;5036259;28;20414;-90
2021/11/13 00:22:55;;;;;;;25.40;14.93;;;6.20;99.90;;;;;;5036243;28;20025;-89
2021/11/13 00:25:21;;;;;;;32.28;17.00;;;6.30;99.90;;;;;;5035974;28;20503;-90
2021/11/13 00:27:47;;;;;;;25.75;15.02;;;6.20;99.90;;;;;;5036195;28;20143;-89
2021/11/13 00:30:14;;;;;;;29.23;16.08;;;6.30;99.90;;;;;;5035925;28;20120;-89
2021/11/13 00:32:41;;;;;;;30.45;17.17;;;6.30;99.90;;;;;;5036329;28;20056;-90
2021/11/13 00:35:07;;;;;;;34.42;16.85;;;6.20;99.90;;;;;;5036108;28;20028;-89
2021/11/13 00:37:33;;;;;;;31.35;17.27;;;6.20;99.90;;;;;;5036099;28;20028;-89
2021/11/13 00:39:59;;;;;;;28.40;15.75;;;6.20;99.90;;;;;;5035770;28;20029;-89
2021/11/13 00:42:25;;;;;;;26.15;14.43;;;6.20;99.90;;;;;;5035460;28;20025;-89
2021/11/13 00:44:51;;;;;;;30.00;16.30;;;6.30;99.90;;;;;;5035783;28;20032;-89
2021/11/13 00:47:17;;;;;;;27.52;15.82;;;6.30;99.90;;;;;;5036119;28;20022;-89
2021/11/13 00:49:43;;;;;;;27.05;16.85;;;6.20;99.90;;;;;;5036406;28;20056;-89
2021/11/13 00:52:09;;;;;;;27.30;16.50;;;6.20;99.90;;;;;;5035683;28;20487;-89
2021/11/13 00:54:35;;;;;;;25.85;15.40;;;6.20;99.90;;;;;;5035646;28;20059;-89
2021/11/13 00:57:04;;;;;;;33.80;17.77;;;6.20;99.90;;;;;;5035768;28;20064;-89
2021/11/13 00:59:30;;;;;;;38.70;21.35;;;6.20;99.90;;;;;;5035708;28;20383;-90
2021/11/13 01:01:57;;;;;;;34.65;19.00;;;6.10;99.90;;;;;;5035609;28;20025;-90
2021/11/13 01:04:23;;;;;;;34.63;19.35;;;6.00;99.90;;;;;;5035460;28;20030;-90
2021/11/13 01:06:50;;;;;;;28.30;16.92;;;6.00;99.90;;;;;;5035468;28;20029;-90
2021/11/13 01:09:16;;;;;;;32.40;17.27;;;6.00;99.90;;;;;;5035225;28;20093;-89
2021/11/13 01:11:41;;;;;;;32.13;16.73;;;6.00;99.90;;;;;;5035181;28;20036;-89
2021/11/13 01:14:08;;;;;;;30.10;16.25;;;6.10;99.90;;;;;;5035306;28;20052;-89
2021/11/13 01:16:34;;;;;;;34.15;19.33;;;6.10;99.90;;;;;;5035209;28;20025;-89
2021/11/13 01:19:00;;;;;;;34.83;18.13;;;6.10;99.90;;;;;;5035209;28;20028;-89
2021/11/13 01:21:26;;;;;;;39.03;18.83;;;6.10;99.90;;;;;;5035175;28;20108;-89
2021/11/13 01:23:52;;;;;;;30.27;17.48;;;6.20;99.90;;;;;;5035444;28;20032;-89
2021/11/13 01:26:18;;;;;;;38.35;19.33;;;6.20;99.90;;;;;;5035056;28;20022;-89
2021/11/13 01:28:44;;;;;;;30.60;17.08;;;6.20;99.90;;;;;;5035097;28;20034;-89
2021/11/13 01:31:09;;;;;;;33.42;17.42;;;6.20;99.90;;;;;;5035287;28;20116;-89
2021/11/13 01:33:35;;;;;;;29.38;16.42;;;6.20;99.90;;;;;;5034823;28;20021;-90
2021/11/13 01:36:03;;;;;;;33.65;19.27;;;6.20;99.90;;;;;;5034770;28;20055;-91
2021/11/13 01:38:29;;;;;;;36.97;19.63;;;6.10;99.90;;;;;;5034912;28;20025;-90
2021/11/13 01:40:57;;;;;;;42.25;22.15;;;6.10;99.90;;;;;;5034632;28;20037;-90
2021/11/13 01:43:23;;;;;;;40.08;22.25;;;6.00;99.90;;;;;;5034832;28;20029;-91
2021/11/13 01:45:49;;;;;;;39.50;21.98;;;5.90;99.90;;;;;;5034318;28;20032;-91
2021/11/13 01:48:15;;;;;;;38.47;20.50;;;5.90;99.90;;;;;;5034857;28;20071;-91
2021/11/13 01:50:43;;;;;;;39.15;21.17;;;5.90;99.90;;;;;;5034644;28;20052;-92
2021/11/13 01:53:10;;;;;;;40.97;20.42;;;5.90;99.90;;;;;;5034517;28;20056;-92
2021/11/13 01:55:37;;;;;;;33.80;19.40;;;5.80;99.90;;;;;;5033581;28;20022;-91
2021/11/13 01:58:13;;;;;;;34.65;19.38;;;5.80;99.90;;;;;;5034245;28;20049;-91
2021/11/13 02:00:45;;;;;;;30.60;17.30;;;5.90;99.90;;;;;;5034362;28;20029;-91
2021/11/13 02:03:12;;;;;;;36.42;20.02;;;5.90;99.90;;;;;;5034388;28;20026;-91
2021/11/13 02:05:38;;;;;;;40.63;22.40;;;5.90;99.90;;;;;;5034230;28;20037;-91
2021/11/13 02:08:05;;;;;;;33.78;18.90;;;5.90;99.90;;;;;;5034338;28;20079;-91
2021/11/13 02:10:32;;;;;;;37.72;19.27;;;5.90;99.90;;;;;;5034101;28;20094;-91
2021/11/13 02:12:59;;;;;;;35.10;18.90;;;5.90;99.90;;;;;;5034412;28;20021;-90
2021/11/13 02:15:25;;;;;;;32.38;17.90;;;5.90;99.90;;;;;;5034422;28;20021;-90
2021/11/13 02:17:53;;;;;;;33.45;17.85;;;6.00;99.90;;;;;;5034130;28;20026;-90
2021/11/13 02:20:30;;;;;;;33.92;19.00;;;6.00;99.90;;;;;;5034089;28;20092;-90
2021/11/13 02:22:59;;;;;;;34.60;17.83;;;6.00;99.90;;;;;;5034013;28;20030;-90
2021/11/13 02:25:27;;;;;;;30.08;17.35;;;6.00;99.90;;;;;;5034047;28;20021;-90
2021/11/13 02:27:53;;;;;;;32.33;18.25;;;6.00;99.90;;;;;;5033881;28;20025;-90
2021/11/13 02:30:19;;;;;;;34.53;17.75;;;6.00;99.90;;;;;;5033895;28;20084;-89
2021/11/13 02:32:46;;;;;;;34.40;18.73;;;6.00;99.90;;;;;;5033909;28;20032;-90
2021/11/13 02:35:14;;;;;;;30.75;17.63;;;6.00;99.90;;;;;;5033791;28;20419;-90
2021/11/13 02:37:43;;;;;;;37.25;20.40;;;6.00;99.90;;;;;;5033789;28;20022;-89
2021/11/13 02:40:10;;;;;;;33.58;18.60;;;6.00;99.90;;;;;;5033884;28;20059;-89
2021/11/13 02:42:37;;;;;;;33.22;18.27;;;6.00;99.90;;;;;;5033590;28;20430;-90
2021/11/13 02:45:09;;;;;;;29.80;16.85;;;6.00;99.90;;;;;;5033822;28;20026;-90
2021/11/13 02:47:35;;;;;;;30.27;17.25;;;6.00;99.90;;;;;;5033654;28;20029;-89
2021/11/13 02:50:03;;;;;;;29.13;16.80;;;6.00;99.90;;;;;;5033509;28;20030;-89
2021/11/13 02:52:54;;;;;;;36.03;20.13;;;6.00;99.90;;;;;;5033625;28;20610;-90
2021/11/13 02:55:22;;;;;;;33.97;19.48;;;5.90;99.90;;;;;;5033953;28;20057;-90
2021/11/13 02:57:48;;;;;;;31.77;17.63;;;5.90;99.90;;;;;;5033401;28;20033;-89
2021/11/13 03:00:16;;;;;;;28.77;16.13;;;5.90;99.90;;;;;;5033481;28;20035;-89
2021/11/13 03:02:41;;;;;;;29.55;16.85;;;6.00;99.90;;;;;;5033675;28;20037;-89
2021/11/13 03:05:25;;;;;;;35.20;18.73;;;6.00;99.90;;;;;;5033469;28;20092;-90
2021/11/13 03:07:52;;;;;;;28.00;16.17;;;6.00;99.90;;;;;;5033395;28;20098;-89
2021/11/13 03:10:19;;;;;;;31.50;17.45;;;6.00;99.90;;;;;;5033186;28;20052;-89
2021/11/13 03:12:45;;;;;;;33.38;17.77;;;6.10;99.90;;;;;;5033446;28;20022;-90
2021/11/13 03:15:13;;;;;;;39.58;21.40;;;6.00;99.90;;;;;;5033310;28;20487;-90
2021/11/13 03:17:39;;;;;;;38.95;21.08;;;6.00;99.90;;;;;;5033148;28;20025;-90
2021/11/13 03:20:10;;;;;;;36.25;19.40;;;5.90;99.90;;;;;;5033328;28;20113;-90
2021/11/13 03:22:38;;;;;;;40.08;21.77;;;6.00;99.90;;;;;;5033315;28;20031;-91
2021/11/13 03:25:16;;;;;;;42.80;24.77;;;5.90;99.90;;;;;;5033214;28;20080;-90
2021/11/13 03:27:48;;;;;;;40.42;22.73;;;5.80;99.90;;;;;;5033437;28;20030;-90
2021/11/13 03:30:14;;;;;;;36.78;21.33;;;5.80;99.90;;;;;;5033221;28;20124;-90
2021/11/13 03:32:40;;;;;;;37.17;20.67;;;5.70;99.90;;;;;;5033216;28;20029;-91
2021/11/13 03:35:07;;;;;;;37.25;20.63;;;5.70;99.90;;;;;;5033090;28;20380;-91
2021/11/13 03:37:33;;;;;;;39.17;20.08;;;5.70;99.90;;;;;;5033081;28;20026;-91
2021/11/13 03:39:58;;;;;;;36.97;20.40;;;5.70;99.90;;;;;;5033078;28;20040;-91
2021/11/13 03:42:27;;;;;;;38.00;19.00;;;5.80;99.90;;;;;;5033057;28;20472;-91
2021/11/13 03:44:53;;;;;;;41.42;21.13;;;5.80;99.90;;;;;;5032945;28;20049;-91
2021/11/13 03:47:19;;;;;;;40.55;21.27;;;5.80;99.90;;;;;;5032922;28;20033;-91
2021/11/13 03:49:45;;;;;;;41.10;23.58;;;5.80;99.90;;;;;;5032725;28;20032;-91
2021/11/13 03:52:11;;;;;;;35.17;21.50;;;5.70;99.90;;;;;;5032911;28;20018;-90
2021/11/13 03:54:37;;;;;;;42.08;22.42;;;5.80;99.90;;;;;;5033154;28;20028;-90
2021/11/13 03:57:04;;;;;;;40.50;23.40;;;5.80;99.90;;;;;;5032841;28;20029;-90
2021/11/13 03:59:30;;;;;;;50.30;26.55;;;5.80;99.90;;;;;;5033125;28;20061;-90
2021/11/13 04:01:55;;;;;;;51.72;24.30;;;5.80;99.90;;;;;;5032831;28;20095;-91
2021/11/13 04:04:21;;;;;;;63.92;29.50;;;5.80;99.90;;;;;;5032917;28;20036;-90
2021/11/13 04:06:47;;;;;;;65.50;33.25;;;5.80;99.90;;;;;;5032903;28;20029;-90
2021/11/13 04:09:13;;;;;;;73.07;36.90;;;5.80;99.90;;;;;;5032952;28;20116;-90
2021/11/13 04:11:38;;;;;;;85.43;40.88;;;5.80;99.90;;;;;;5032469;28;20063;-90
2021/11/13 04:14:04;;;;;;;79.32;39.67;;;5.80;99.90;;;;;;5033918;28;20026;-90
2021/11/13 04:16:30;;;;;;;61.22;33.42;;;5.80;99.90;;;;;;5032805;28;20076;-90
2021/11/13 04:18:56;;;;;;;71.45;34.67;;;5.70;99.90;;;;;;5035720;28;20022;-90
2021/11/13 04:21:21;;;;;;;66.15;32.03;;;5.70;99.90;;;;;;5036181;28;20472;-90
2021/11/13 04:23:47;;;;;;;56.20;29.67;;;5.70;99.90;;;;;;5036345;28;20034;-89
2021/11/13 04:26:13;;;;;;;53.25;29.52;;;5.70;99.90;;;;;;5036153;28;20026;-90
2021/11/13 04:28:39;;;;;;;49.42;27.50;;;5.70;99.90;;;;;;5036176;28;20025;-90
2021/11/13 04:31:05;;;;;;;46.83;25.60;;;5.70;99.90;;;;;;5036008;28;20171;-90
2021/11/13 04:33:33;;;;;;;50.75;27.55;;;5.70;99.90;;;;;;5036162;28;20033;-90
2021/11/13 04:38:26;;;;;;;47.35;25.02;;;5.60;99.90;;;;;;5037420;28;20452;-90
2021/11/13 04:40:52;;;;;;;44.50;23.90;;;5.60;99.90;;;;;;5035871;28;20029;-90
2021/11/13 04:43:18;;;;;;;45.83;23.77;;;5.50;99.90;;;;;;5036159;28;20031;-89
2021/11/13 04:45:44;;;;;;;43.17;23.40;;;5.50;99.90;;;;;;5035801;28;20075;-90
2021/11/13 04:48:10;;;;;;;45.55;24.80;;;5.40;99.90;;;;;;5035882;28;20113;-90
2021/11/13 04:50:36;;;;;;;47.83;26.17;;;5.40;99.90;;;;;;5035635;28;20537;-90
2021/11/13 04:53:04;;;;;;;48.33;23.38;;;5.30;99.90;;;;;;5035775;28;20022;-90
2021/11/13 04:55:29;;;;;;;41.33;22.92;;;5.20;99.90;;;;;;5035636;28;20022;-90
2021/11/13 04:57:55;;;;;;;50.60;24.88;;;5.10;99.90;;;;;;5035671;28;20022;-90
2021/11/13 05:00:24;;;;;;;44.47;24.05;;;5.10;99.90;;;;;;5035636;28;20026;-90
2021/11/13 05:02:50;;;;;;;46.20;24.77;;;5.10;99.90;;;;;;5035557;28;20033;-93
2021/11/13 05:05:16;;;;;;;50.65;25.77;;;5.00;99.90;;;;;;5035581;28;20022;-92
2021/11/13 05:07:42;;;;;;;648.78;317.48;;;5.10;99.90;;;;;;5035861;28;20415;-92
2021/11/13 05:10:08;;;;;;;260.98;115.85;;;5.10;99.90;;;;;;5035446;28;20065;-93
2021/11/13 05:12:34;;;;;;;87.25;41.70;;;5.10;99.90;;;;;;5035533;28;20079;-93
2021/11/13 05:15:00;;;;;;;65.43;33.47;;;5.10;99.90;;;;;;5035359;28;20083;-93
2021/11/13 05:17:26;;;;;;;61.55;32.70;;;5.20;99.90;;;;;;5035311;28;20029;-91
2021/11/13 05:19:52;;;;;;;719.80;354.05;;;5.20;99.90;;;;;;5035242;28;20022;-90
2021/11/13 05:22:18;;;;;;;265.08;118.45;;;5.30;99.90;;;;;;5035201;28;20365;-93
2021/11/13 05:24:43;;;;;;;119.15;59.88;;;5.30;99.90;;;;;;5035309;28;20380;-93
2021/11/13 05:27:10;;;;;;;75.68;38.47;;;5.30;99.90;;;;;;5035033;28;20029;-91
2021/11/13 05:29:36;;;;;;;49.00;27.17;;;5.30;99.90;;;;;;5035133;28;20022;-92
2021/11/13 05:32:03;;;;;;;46.47;25.83;;;5.30;99.90;;;;;;5035051;28;20073;-92
2021/11/13 05:34:29;;;;;;;44.13;25.92;;;5.40;99.90;;;;;;5035080;28;20070;-93
2021/11/13 05:36:54;;;;;;;151.48;71.63;;;5.40;99.90;;;;;;5035064;28;20108;-93
2021/11/13 05:39:20;;;;;;;137.80;64.90;;;5.50;99.90;;;;;;5034939;28;20380;-93
2021/11/13 05:41:46;;;;;;;109.53;53.53;;;5.60;99.90;;;;;;5034790;28;20026;-93
2021/11/13 05:44:12;;;;;;;84.38;41.95;;;5.60;99.90;;;;;;5034695;28;20022;-93
2021/11/13 05:46:38;;;;;;;53.35;32.00;;;5.60;99.90;;;;;;5034533;28;20032;-93
2021/11/13 05:49:04;;;;;;;56.47;32.83;;;5.60;99.90;;;;;;5034644;28;20480;-93
2021/11/13 05:51:30;;;;;;;50.45;31.02;;;5.60;99.90;;;;;;5034565;28;20395;-94
2021/11/13 05:53:55;;;;;;;47.40;30.30;;;5.60;99.90;;;;;;5034710;28;20116;-93
2021/11/13 05:56:21;;;;;;;54.20;29.73;;;5.60;99.90;;;;;;5034487;28;20075;-90
2021/11/13 05:58:47;;;;;;;49.70;30.90;;;5.60;99.90;;;;;;5034587;28;20067;-90
2021/11/13 06:01:13;;;;;;;51.03;29.75;;;5.60;99.90;;;;;;5034323;28;20033;-93
2021/11/13 06:03:39;;;;;;;48.28;28.27;;;5.60;99.90;;;;;;5034511;28;20025;-93
2021/11/13 06:06:04;;;;;;;51.05;28.38;;;5.60;99.90;;;;;;5034134;28;20112;-94
2021/11/13 06:08:30;;;;;;;53.38;29.13;;;5.70;99.90;;;;;;5034804;28;20033;-94
2021/11/13 06:10:56;;;;;;;60.80;34.30;;;5.70;99.90;;;;;;5033828;28;20052;-93
2021/11/13 06:13:21;;;;;;;53.50;30.88;;;5.60;99.90;;;;;;5034153;28;20144;-93
2021/11/13 06:15:47;;;;;;;50.67;30.33;;;5.70;99.90;;;;;;5034020;28;20021;-93
2021/11/13 06:18:13;;;;;;;55.28;32.08;;;5.70;99.90;;;;;;5034164;28;20490;-94
2021/11/13 06:20:39;;;;;;;54.78;31.25;;;5.80;99.90;;;;;;5034674;28;20029;-94
2021/11/13 06:23:05;;;;;;;62.50;31.23;;;5.80;99.90;;;;;;5034040;28;20025;-94
2021/11/13 06:25:30;;;;;;;123.50;54.67;;;5.80;99.90;;;;;;5033894;28;20025;-93
2021/11/13 06:27:56;;;;;;;73.80;35.90;;;5.90;99.90;;;;;;5033841;28;20093;-94
2021/11/13 06:30:22;;;;;;;71.15;36.58;;;5.90;99.90;;;;;;5034012;28;20026;-94
2021/11/13 06:32:51;;;;;;;64.85;33.05;;;5.90;99.90;;;;;;5033764;28;20045;-94
2021/11/13 06:35:17;;;;;;;56.30;32.17;;;5.90;99.90;;;;;;5033686;28;20026;-94
2021/11/13 06:37:43;;;;;;;60.47;31.63;;;6.00;99.90;;;;;;5033756;28;20112;-93
2021/11/13 06:40:10;;;;;;;55.85;29.25;;;6.10;99.90;;;;;;5034191;28;20053;-93
